アナディリ の空港の天気 - METARとTAF

アナディリ・ウゴルヌイ空港 ( UHMA / DYR ) - ロシア アナディリ
飛行場実況気象(Metar)
観測時間01/23 14:30 MAGT (01/23 03:30 UTC)
風向・風速北 4m/s
視程2000m
天気現象雪 もや
全天の4割程度の雲 雲底高度 210m
全天の8割程度の雲 雲底高度 490m
全天を覆う雲 雲底高度 2440m
気温-4℃
湿度93%
気圧1022hPa
METARUHMA 230330Z 01004MPS 2000 SN BR SCT007 BKN016 OVC080 M04/M05 Q1022 R88/39//45 NOSIG RMK END R01/34003MPS QFE763/1017
過去の天気等 Google飛行場航空写真 Wunderground天気予報

過去48時間のMETAR

飛行場予報(TAF)
発表時間: 1/23 12:58 MAGT (1/23 01:58 UTC)
予報対象時間: 23日14時 MAGT ~ 24日14時 MAGT
風向・風速東 7m/s
視程4,000m
天気現象弱い雪
全天の4割程度の雲 雲底高度 150m
全天の8割程度の雲 雲底高度 760m
23日14時 MAGT ~ 24日14時 MAGT に一時的に
風向・風速東南東 9m/s 瞬間風速 14m/s
視程800m
天気現象強いしゅう雪雨 氷霧
全天を覆う雲 鉛直視程 90m
TAF COR UHMA 230158Z 2303/2403 08007MPS 4000 -SN SCT005 BKN025
TEMPO 2303/2403 11009G14MPS 0800 +SHSNRA FZFG VV003